Sylvester, Texas
Current Conditions -  °F | °C
As of 10:15 PM on Sunday 21 Dec 2014 (Local Time) from KSWW Reporting Station
Clear Clear  
Wind Chill: 55°   Ceiling: Unl
Heat Index: 55°   Visibility: 10mi
Dew Point: 41°   Wind: 17mph
Humidity: 60%   Direction: 190°S
Pressure: 29.7"   Gusts: 22mph
Location:  32.72°N, 100.26°W
Report Text: KSWW 220415Z AUTO 19015G19KT 10SM CLR 13/05 A2970 RMK AO2 T01250050
Loading
Personal Weather Stations






























Interactive Weather Map New forecast layout! Learn more

10-Day Weather Forecast

Advertisements
Track Severe Weather on mobile